sensor_id;sensor_type;location;lat;lon;timestamp;P1;P2;P0
44871;PMS7003;30602;51.060;17.226;2023-11-21T00:00:49;2;2;2
44871;PMS7003;30602;51.060;17.226;2023-11-21T00:04:43;4;3;2
44871;PMS7003;30602;51.060;17.226;2023-11-21T00:08:02;3;3;3
44871;PMS7003;30602;51.060;17.226;2023-11-21T00:11:47;4;4;2
44871;PMS7003;30602;51.060;17.226;2023-11-21T00:16:01;6;3;2
44871;PMS7003;30602;51.060;17.226;2023-11-21T00:19:56;4;2;1
44871;PMS7003;30602;51.060;17.226;2023-11-21T00:23:49;3;2;2
44871;PMS7003;30602;51.060;17.226;2023-11-21T00:27:11;5;1;1
44871;PMS7003;30602;51.060;17.226;2023-11-21T00:31:28;3;2;1
44871;PMS7003;30602;51.060;17.226;2023-11-21T00:34:47;2;1;1
44871;PMS7003;30602;51.060;17.226;2023-11-21T00:38:55;2;1;0
44871;PMS7003;30602;51.060;17.226;2023-11-21T00:42:18;5;3;1
44871;PMS7003;30602;51.060;17.226;2023-11-21T00:45:44;2;1;0
44871;PMS7003;30602;51.060;17.226;2023-11-21T00:49:10;5;2;1
44871;PMS7003;30602;51.060;17.226;2023-11-21T00:52:33;1;1;1
44871;PMS7003;30602;51.060;17.226;2023-11-21T00:56:25;4;1;1
44871;PMS7003;30602;51.060;17.226;2023-11-21T00:59:49;2;1;1
44871;PMS7003;30602;51.060;17.226;2023-11-21T01:10:55;4;1;1
44871;PMS7003;30602;51.060;17.226;2023-11-21T01:14:41;3;2;2
44871;PMS7003;30602;51.060;17.226;2023-11-21T01:18:36;5;2;1
44871;PMS7003;30602;51.060;17.226;2023-11-21T01:21:58;3;2;1
44871;PMS7003;30602;51.060;17.226;2023-11-21T01:26:13;4;2;1
44871;PMS7003;30602;51.060;17.226;2023-11-21T01:29:35;2;2;1
44871;PMS7003;30602;51.060;17.226;2023-11-21T01:33:22;3;1;1
44871;PMS7003;30602;51.060;17.226;2023-11-21T01:37:01;2;1;1
44871;PMS7003;30602;51.060;17.226;2023-11-21T01:40:47;2;1;0
44871;PMS7003;30602;51.060;17.226;2023-11-21T01:44:10;5;2;2
44871;PMS7003;30602;51.060;17.226;2023-11-21T01:51:57;3;1;1
44871;PMS7003;30602;51.060;17.226;2023-11-21T01:56:58;1;1;1
44871;PMS7003;30602;51.060;17.226;2023-11-21T02:01:18;2;2;1
44871;PMS7003;30602;51.060;17.226;2023-11-21T02:05:01;2;2;2
44871;PMS7003;30602;51.060;17.226;2023-11-21T02:08:44;4;3;2
44871;PMS7003;30602;51.060;17.226;2023-11-21T02:13:11;2;1;1
44871;PMS7003;30602;51.060;17.226;2023-11-21T02:16:33;6;3;2
44871;PMS7003;30602;51.060;17.226;2023-11-21T02:19:54;2;1;1
44871;PMS7003;30602;51.060;17.226;2023-11-21T02:23:17;2;1;1
44871;PMS7003;30602;51.060;17.226;2023-11-21T02:27:12;3;1;1
44871;PMS7003;30602;51.060;17.226;2023-11-21T02:31:34;1;1;0
44871;PMS7003;30602;51.060;17.226;2023-11-21T02:35:37;2;2;1
44871;PMS7003;30602;51.060;17.226;2023-11-21T02:39:10;4;2;2
44871;PMS7003;30602;51.060;17.226;2023-11-21T02:43:05;2;1;1
44871;PMS7003;30602;51.060;17.226;2023-11-21T02:46:39;2;1;1
44871;PMS7003;30602;51.060;17.226;2023-11-21T02:50:16;2;2;1
44871;PMS7003;30602;51.060;17.226;2023-11-21T02:54:23;2;2;1
44871;PMS7003;30602;51.060;17.226;2023-11-21T02:58:19;5;1;1
44871;PMS7003;30602;51.060;17.226;2023-11-21T03:01:45;4;3;1
44871;PMS7003;30602;51.060;17.226;2023-11-21T03:05:31;3;2;2
44871;PMS7003;30602;51.060;17.226;2023-11-21T03:08:59;3;1;1
44871;PMS7003;30602;51.060;17.226;2023-11-21T03:12:43;5;2;2
44871;PMS7003;30602;51.060;17.226;2023-11-21T03:17:20;5;4;2
44871;PMS7003;30602;51.060;17.226;2023-11-21T03:20:43;4;3;1
44871;PMS7003;30602;51.060;17.226;2023-11-21T03:25:07;7;4;3
44871;PMS7003;30602;51.060;17.226;2023-11-21T03:29:17;4;2;1
44871;PMS7003;30602;51.060;17.226;2023-11-21T03:33:44;5;4;3
44871;PMS7003;30602;51.060;17.226;2023-11-21T03:37:28;6;4;3
44871;PMS7003;30602;51.060;17.226;2023-11-21T03:40:51;3;3;2
44871;PMS7003;30602;51.060;17.226;2023-11-21T03:44:26;3;3;2
44871;PMS7003;30602;51.060;17.226;2023-11-21T03:48:32;4;4;3
44871;PMS7003;30602;51.060;17.226;2023-11-21T03:52:47;8;4;3
44871;PMS7003;30602;51.060;17.226;2023-11-21T03:56:21;5;4;3
44871;PMS7003;30602;51.060;17.226;2023-11-21T04:00:16;7;6;4
44871;PMS7003;30602;51.060;17.226;2023-11-21T04:03:55;5;4;3
44871;PMS7003;30602;51.060;17.226;2023-11-21T04:07:19;6;4;4
44871;PMS7003;30602;51.060;17.226;2023-11-21T04:11:13;7;6;5
44871;PMS7003;30602;51.060;17.226;2023-11-21T04:16:01;8;5;5
44871;PMS7003;30602;51.060;17.226;2023-11-21T04:20:03;7;4;3
44871;PMS7003;30602;51.060;17.226;2023-11-21T04:24:13;4;3;2
44871;PMS7003;30602;51.060;17.226;2023-11-21T04:28:13;4;4;3
44871;PMS7003;30602;51.060;17.226;2023-11-21T04:32:27;5;5;3
44871;PMS7003;30602;51.060;17.226;2023-11-21T04:36:41;5;3;3
44871;PMS7003;30602;51.060;17.226;2023-11-21T04:40:23;6;5;3
44871;PMS7003;30602;51.060;17.226;2023-11-21T04:43:59;5;4;3
44871;PMS7003;30602;51.060;17.226;2023-11-21T04:47:44;3;3;3
44871;PMS7003;30602;51.060;17.226;2023-11-21T04:51:22;5;4;3
44871;PMS7003;30602;51.060;17.226;2023-11-21T04:55:30;4;4;3
44871;PMS7003;30602;51.060;17.226;2023-11-21T04:59:03;5;3;2
44871;PMS7003;30602;51.060;17.226;2023-11-21T05:02:23;4;4;2
44871;PMS7003;30602;51.060;17.226;2023-11-21T05:06:24;2;2;1
44871;PMS7003;30602;51.060;17.226;2023-11-21T05:09:57;5;3;2
44871;PMS7003;30602;51.060;17.226;2023-11-21T05:13:42;4;3;2
44871;PMS7003;30602;51.060;17.226;2023-11-21T05:17:38;3;3;2
44871;PMS7003;30602;51.060;17.226;2023-11-21T05:21:53;2;2;1
44871;PMS7003;30602;51.060;17.226;2023-11-21T05:26:18;4;3;2
44871;PMS7003;30602;51.060;17.226;2023-11-21T05:30:15;7;4;3
44871;PMS7003;30602;51.060;17.226;2023-11-21T05:34:09;7;5;4
44871;PMS7003;30602;51.060;17.226;2023-11-21T05:37:53;7;4;3
44871;PMS7003;30602;51.060;17.226;2023-11-21T05:41:48;5;4;3
44871;PMS7003;30602;51.060;17.226;2023-11-21T05:45:10;7;5;3
44871;PMS7003;30602;51.060;17.226;2023-11-21T05:49:23;8;6;5
44871;PMS7003;30602;51.060;17.226;2023-11-21T05:53:10;7;5;4
44871;PMS7003;30602;51.060;17.226;2023-11-21T05:57:07;4;4;3
44871;PMS7003;30602;51.060;17.226;2023-11-21T06:00:58;7;6;3
44871;PMS7003;30602;51.060;17.226;2023-11-21T06:04:53;7;5;4
44871;PMS7003;30602;51.060;17.226;2023-11-21T06:09:29;8;6;4
44871;PMS7003;30602;51.060;17.226;2023-11-21T06:17:29;8;6;4
44871;PMS7003;30602;51.060;17.226;2023-11-21T06:21:22;8;8;5
44871;PMS7003;30602;51.060;17.226;2023-11-21T06:25:07;8;7;5
44871;PMS7003;30602;51.060;17.226;2023-11-21T06:29:18;8;7;5
44871;PMS7003;30602;51.060;17.226;2023-11-21T06:33:23;11;10;6
44871;PMS7003;30602;51.060;17.226;2023-11-21T06:37:20;7;7;5
44871;PMS7003;30602;51.060;17.226;2023-11-21T06:41:18;7;7;6
44871;PMS7003;30602;51.060;17.226;2023-11-21T06:45:11;6;6;4
44871;PMS7003;30602;51.060;17.226;2023-11-21T06:48:46;13;7;6
44871;PMS7003;30602;51.060;17.226;2023-11-21T06:52:12;32;27;18
44871;PMS7003;30602;51.060;17.226;2023-11-21T06:55:54;17;11;7
44871;PMS7003;30602;51.060;17.226;2023-11-21T06:59:30;8;7;5
44871;PMS7003;30602;51.060;17.226;2023-11-21T07:03:26;14;12;9
44871;PMS7003;30602;51.060;17.226;2023-11-21T07:07:09;11;11;9
44871;PMS7003;30602;51.060;17.226;2023-11-21T07:11:35;13;9;7
44871;PMS7003;30602;51.060;17.226;2023-11-21T07:15:10;19;16;10
44871;PMS7003;30602;51.060;17.226;2023-11-21T07:18:35;12;9;6
44871;PMS7003;30602;51.060;17.226;2023-11-21T07:21:57;27;23;15
44871;PMS7003;30602;51.060;17.226;2023-11-21T07:26:15;18;17;12
44871;PMS7003;30602;51.060;17.226;2023-11-21T07:29:57;21;18;12
44871;PMS7003;30602;51.060;17.226;2023-11-21T07:33:52;13;12;8
44871;PMS7003;30602;51.060;17.226;2023-11-21T07:37:49;16;14;10
44871;PMS7003;30602;51.060;17.226;2023-11-21T07:41:41;21;19;13
44871;PMS7003;30602;51.060;17.226;2023-11-21T07:45:43;17;15;11
44871;PMS7003;30602;51.060;17.226;2023-11-21T07:50:02;10;9;6
44871;PMS7003;30602;51.060;17.226;2023-11-21T07:54:19;29;22;14
44871;PMS7003;30602;51.060;17.226;2023-11-21T07:58:30;35;30;17
44871;PMS7003;30602;51.060;17.226;2023-11-21T08:02:11;31;27;17
44871;PMS7003;30602;51.060;17.226;2023-11-21T08:07:13;14;10;7
44871;PMS7003;30602;51.060;17.226;2023-11-21T08:19:24;15;12;8
44871;PMS7003;30602;51.060;17.226;2023-11-21T08:23:38;12;11;8
44871;PMS7003;30602;51.060;17.226;2023-11-21T08:27:52;17;16;11
44871;PMS7003;30602;51.060;17.226;2023-11-21T08:32:07;15;15;12
44871;PMS7003;30602;51.060;17.226;2023-11-21T08:36:14;14;11;9
44871;PMS7003;30602;51.060;17.226;2023-11-21T08:40:18;11;11;9
44871;PMS7003;30602;51.060;17.226;2023-11-21T08:43:41;19;16;12
44871;PMS7003;30602;51.060;17.226;2023-11-21T08:47:49;22;18;14
44871;PMS7003;30602;51.060;17.226;2023-11-21T08:51:13;18;13;10
44871;PMS7003;30602;51.060;17.226;2023-11-21T08:55:01;20;16;11
44871;PMS7003;30602;51.060;17.226;2023-11-21T08:58:28;15;14;10
44871;PMS7003;30602;51.060;17.226;2023-11-21T09:02:29;15;12;9
44871;PMS7003;30602;51.060;17.226;2023-11-21T09:06:02;14;12;9
44871;PMS7003;30602;51.060;17.226;2023-11-21T09:09:41;12;11;7
44871;PMS7003;30602;51.060;17.226;2023-11-21T09:13:33;13;9;7
44871;PMS7003;30602;51.060;17.226;2023-11-21T09:17:26;11;9;7
44871;PMS7003;30602;51.060;17.226;2023-11-21T09:21:16;12;12;8
44871;PMS7003;30602;51.060;17.226;2023-11-21T09:24:56;13;12;7
44871;PMS7003;30602;51.060;17.226;2023-11-21T09:28:20;14;14;10
44871;PMS7003;30602;51.060;17.226;2023-11-21T09:31:45;27;23;14
44871;PMS7003;30602;51.060;17.226;2023-11-21T09:35:37;22;19;13
44871;PMS7003;30602;51.060;17.226;2023-11-21T09:39:34;17;13;10
44871;PMS7003;30602;51.060;17.226;2023-11-21T09:43:27;15;13;9
44871;PMS7003;30602;51.060;17.226;2023-11-21T09:47:35;15;14;10
44871;PMS7003;30602;51.060;17.226;2023-11-21T09:50:57;17;16;11
44871;PMS7003;30602;51.060;17.226;2023-11-21T09:54:39;22;21;12
44871;PMS7003;30602;51.060;17.226;2023-11-21T09:58:23;20;17;12
44871;PMS7003;30602;51.060;17.226;2023-11-21T10:02:34;17;16;13
44871;PMS7003;30602;51.060;17.226;2023-11-21T10:06:48;34;29;19
44871;PMS7003;30602;51.060;17.226;2023-11-21T10:10:18;24;21;14
44871;PMS7003;30602;51.060;17.226;2023-11-21T10:14:12;26;23;16
44871;PMS7003;30602;51.060;17.226;2023-11-21T10:17:39;15;13;8
44871;PMS7003;30602;51.060;17.226;2023-11-21T10:21:25;23;21;18
44871;PMS7003;30602;51.060;17.226;2023-11-21T10:29:34;8;8;6
44871;PMS7003;30602;51.060;17.226;2023-11-21T10:33:50;15;13;9
44871;PMS7003;30602;51.060;17.226;2023-11-21T10:38:02;32;29;18
44871;PMS7003;30602;51.060;17.226;2023-11-21T10:42:17;33;28;17
44871;PMS7003;30602;51.060;17.226;2023-11-21T10:46:21;32;29;16
44871;PMS7003;30602;51.060;17.226;2023-11-21T10:50:23;32;28;18
44871;PMS7003;30602;51.060;17.226;2023-11-21T10:54:06;34;30;17
44871;PMS7003;30602;51.060;17.226;2023-11-21T10:57:33;41;37;21
44871;PMS7003;30602;51.060;17.226;2023-11-21T11:01:47;38;31;19
44871;PMS7003;30602;51.060;17.226;2023-11-21T11:05:37;38;35;20
44871;PMS7003;30602;51.060;17.226;2023-11-21T11:09:59;50;38;21
44871;PMS7003;30602;51.060;17.226;2023-11-21T11:13:45;37;31;20
44871;PMS7003;30602;51.060;17.226;2023-11-21T11:18:02;42;34;20
44871;PMS7003;30602;51.060;17.226;2023-11-21T11:29:56;38;33;18
44871;PMS7003;30602;51.060;17.226;2023-11-21T11:34:48;39;31;19
44871;PMS7003;30602;51.060;17.226;2023-11-21T11:39:29;38;33;20
44871;PMS7003;30602;51.060;17.226;2023-11-21T11:43:35;34;32;18
44871;PMS7003;30602;51.060;17.226;2023-11-21T11:47:56;41;35;19
44871;PMS7003;30602;51.060;17.226;2023-11-21T11:52:19;48;38;19
44871;PMS7003;30602;51.060;17.226;2023-11-21T11:55:25;49;37;20
44871;PMS7003;30602;51.060;17.226;2023-11-21T11:59:50;39;34;21
44871;PMS7003;30602;51.060;17.226;2023-11-21T12:03:31;47;40;21
44871;PMS7003;30602;51.060;17.226;2023-11-21T12:07:25;52;40;22
44871;PMS7003;30602;51.060;17.226;2023-11-21T12:12:19;50;41;22
44871;PMS7003;30602;51.060;17.226;2023-11-21T12:21:30;56;42;23
44871;PMS7003;30602;51.060;17.226;2023-11-21T12:24:56;45;38;24
44871;PMS7003;30602;51.060;17.226;2023-11-21T12:29:02;45;37;21
44871;PMS7003;30602;51.060;17.226;2023-11-21T12:32:51;36;32;20
44871;PMS7003;30602;51.060;17.226;2023-11-21T12:36:51;46;39;20
44871;PMS7003;30602;51.060;17.226;2023-11-21T12:40:22;43;34;18
44871;PMS7003;30602;51.060;17.226;2023-11-21T12:45:19;39;33;17
44871;PMS7003;30602;51.060;17.226;2023-11-21T12:49:16;38;28;18
44871;PMS7003;30602;51.060;17.226;2023-11-21T12:53:08;38;32;17
44871;PMS7003;30602;51.060;17.226;2023-11-21T12:56:53;33;27;17
44871;PMS7003;30602;51.060;17.226;2023-11-21T13:00:44;38;29;18
44871;PMS7003;30602;51.060;17.226;2023-11-21T13:04:07;20;19;11
44871;PMS7003;30602;51.060;17.226;2023-11-21T13:08:22;23;20;14
44871;PMS7003;30602;51.060;17.226;2023-11-21T13:12:01;25;21;15
44871;PMS7003;30602;51.060;17.226;2023-11-21T13:15:28;19;16;12
44871;PMS7003;30602;51.060;17.226;2023-11-21T13:19:05;20;17;12
44871;PMS7003;30602;51.060;17.226;2023-11-21T13:22:30;20;17;10
44871;PMS7003;30602;51.060;17.226;2023-11-21T13:26:28;19;15;10
44871;PMS7003;30602;51.060;17.226;2023-11-21T13:30:14;15;14;10
44871;PMS7003;30602;51.060;17.226;2023-11-21T13:34:00;28;24;12
44871;PMS7003;30602;51.060;17.226;2023-11-21T13:38:35;22;15;11
44871;PMS7003;30602;51.060;17.226;2023-11-21T13:42:14;18;15;10
44871;PMS7003;30602;51.060;17.226;2023-11-21T13:46:15;18;14;10
44871;PMS7003;30602;51.060;17.226;2023-11-21T13:50:09;25;20;13
44871;PMS7003;30602;51.060;17.226;2023-11-21T13:54:18;18;16;13
44871;PMS7003;30602;51.060;17.226;2023-11-21T13:58:16;23;19;13
44871;PMS7003;30602;51.060;17.226;2023-11-21T14:01:48;26;20;12
44871;PMS7003;30602;51.060;17.226;2023-11-21T14:05:28;23;19;13
44871;PMS7003;30602;51.060;17.226;2023-11-21T14:08:57;28;22;13
44871;PMS7003;30602;51.060;17.226;2023-11-21T14:13:18;27;23;13
44871;PMS7003;30602;51.060;17.226;2023-11-21T14:17:44;26;22;14
44871;PMS7003;30602;51.060;17.226;2023-11-21T14:21:08;22;20;13
44871;PMS7003;30602;51.060;17.226;2023-11-21T14:25:03;26;25;15
44871;PMS7003;30602;51.060;17.226;2023-11-21T14:29:10;24;18;12
44871;PMS7003;30602;51.060;17.226;2023-11-21T14:33:46;35;27;16
44871;PMS7003;30602;51.060;17.226;2023-11-21T14:37:14;28;24;14
44871;PMS7003;30602;51.060;17.226;2023-11-21T14:41:27;25;22;14
44871;PMS7003;30602;51.060;17.226;2023-11-21T14:46:26;30;25;15
44871;PMS7003;30602;51.060;17.226;2023-11-21T14:50:10;22;19;13
44871;PMS7003;30602;51.060;17.226;2023-11-21T14:54:49;23;18;11
44871;PMS7003;30602;51.060;17.226;2023-11-21T14:59:11;23;19;15
44871;PMS7003;30602;51.060;17.226;2023-11-21T15:03:27;26;20;14
44871;PMS7003;30602;51.060;17.226;2023-11-21T15:07:39;25;23;14
44871;PMS7003;30602;51.060;17.226;2023-11-21T15:11:46;28;21;14
44871;PMS7003;30602;51.060;17.226;2023-11-21T15:16:15;18;16;12
44871;PMS7003;30602;51.060;17.226;2023-11-21T15:20:14;30;26;14
44871;PMS7003;30602;51.060;17.226;2023-11-21T15:24:13;28;19;13
44871;PMS7003;30602;51.060;17.226;2023-11-21T15:28:10;22;19;12
44871;PMS7003;30602;51.060;17.226;2023-11-21T15:35:49;20;17;11
44871;PMS7003;30602;51.060;17.226;2023-11-21T15:40:07;23;20;12
44871;PMS7003;30602;51.060;17.226;2023-11-21T15:43:48;26;19;13
44871;PMS7003;30602;51.060;17.226;2023-11-21T15:47:31;24;20;13
44871;PMS7003;30602;51.060;17.226;2023-11-21T15:51:17;25;20;14
44871;PMS7003;30602;51.060;17.226;2023-11-21T15:55:37;30;22;14
44871;PMS7003;30602;51.060;17.226;2023-11-21T16:00:12;33;27;15
44871;PMS7003;30602;51.060;17.226;2023-11-21T16:04:05;28;20;13
44871;PMS7003;30602;51.060;17.226;2023-11-21T16:07:34;29;22;14
44871;PMS7003;30602;51.060;17.226;2023-11-21T16:11:31;23;21;14
44871;PMS7003;30602;51.060;17.226;2023-11-21T16:15:37;31;26;15
44871;PMS7003;30602;51.060;17.226;2023-11-21T16:19:03;23;19;13
44871;PMS7003;30602;51.060;17.226;2023-11-21T16:22:51;25;19;12
44871;PMS7003;30602;51.060;17.226;2023-11-21T16:27:34;29;21;14
44871;PMS7003;30602;51.060;17.226;2023-11-21T16:31:00;29;25;17
44871;PMS7003;30602;51.060;17.226;2023-11-21T16:35:26;18;16;12
44871;PMS7003;30602;51.060;17.226;2023-11-21T16:39:00;18;18;12
44871;PMS7003;30602;51.060;17.226;2023-11-21T16:43:46;23;20;13
44871;PMS7003;30602;51.060;17.226;2023-11-21T16:47:45;20;17;11
44871;PMS7003;30602;51.060;17.226;2023-11-21T16:51:42;19;15;10
44871;PMS7003;30602;51.060;17.226;2023-11-21T16:55:07;18;18;12
44871;PMS7003;30602;51.060;17.226;2023-11-21T16:58:35;28;15;9
44871;PMS7003;30602;51.060;17.226;2023-11-21T17:02:45;21;17;11
44871;PMS7003;30602;51.060;17.226;2023-11-21T17:06:41;19;15;11
44871;PMS7003;30602;51.060;17.226;2023-11-21T17:11:20;26;23;14
44871;PMS7003;30602;51.060;17.226;2023-11-21T17:15:49;28;23;15
44871;PMS7003;30602;51.060;17.226;2023-11-21T17:20:10;32;27;17
44871;PMS7003;30602;51.060;17.226;2023-11-21T17:27:45;22;18;12
44871;PMS7003;30602;51.060;17.226;2023-11-21T17:31:31;31;23;14
44871;PMS7003;30602;51.060;17.226;2023-11-21T17:34:54;32;25;18
44871;PMS7003;30602;51.060;17.226;2023-11-21T17:43:27;38;30;18
44871;PMS7003;30602;51.060;17.226;2023-11-21T17:47:14;30;25;16
44871;PMS7003;30602;51.060;17.226;2023-11-21T17:51:15;27;23;15
44871;PMS7003;30602;51.060;17.226;2023-11-21T17:54:40;23;21;14
44871;PMS7003;30602;51.060;17.226;2023-11-21T17:58:41;33;25;15
44871;PMS7003;30602;51.060;17.226;2023-11-21T18:02:47;25;21;13
44871;PMS7003;30602;51.060;17.226;2023-11-21T18:06:13;25;20;14
44871;PMS7003;30602;51.060;17.226;2023-11-21T18:10:11;27;23;13
44871;PMS7003;30602;51.060;17.226;2023-11-21T18:14:01;28;26;16
44871;PMS7003;30602;51.060;17.226;2023-11-21T18:17:49;30;22;15
44871;PMS7003;30602;51.060;17.226;2023-11-21T18:21:40;28;22;14
44871;PMS7003;30602;51.060;17.226;2023-11-21T18:25:37;33;29;17
44871;PMS7003;30602;51.060;17.226;2023-11-21T18:29:09;34;29;17
44871;PMS7003;30602;51.060;17.226;2023-11-21T18:32:41;35;32;17
44871;PMS7003;30602;51.060;17.226;2023-11-21T18:36:37;33;25;17
44871;PMS7003;30602;51.060;17.226;2023-11-21T18:40:36;32;24;15
44871;PMS7003;30602;51.060;17.226;2023-11-21T18:44:15;30;28;17
44871;PMS7003;30602;51.060;17.226;2023-11-21T18:47:50;26;24;16
44871;PMS7003;30602;51.060;17.226;2023-11-21T18:51:28;30;28;16
44871;PMS7003;30602;51.060;17.226;2023-11-21T18:55:03;33;29;17
44871;PMS7003;30602;51.060;17.226;2023-11-21T18:58:42;27;24;15
44871;PMS7003;30602;51.060;17.226;2023-11-21T19:02:39;33;27;16
44871;PMS7003;30602;51.060;17.226;2023-11-21T19:06:17;36;31;16
44871;PMS7003;30602;51.060;17.226;2023-11-21T19:09:50;39;33;20
44871;PMS7003;30602;51.060;17.226;2023-11-21T19:13:41;38;30;17
44871;PMS7003;30602;51.060;17.226;2023-11-21T19:17:39;31;28;19
44871;PMS7003;30602;51.060;17.226;2023-11-21T19:21:24;40;32;19
44871;PMS7003;30602;51.060;17.226;2023-11-21T19:24:53;35;31;18
44871;PMS7003;30602;51.060;17.226;2023-11-21T19:28:45;34;32;18
44871;PMS7003;30602;51.060;17.226;2023-11-21T19:32:36;42;35;18
44871;PMS7003;30602;51.060;17.226;2023-11-21T19:36:33;41;37;22
44871;PMS7003;30602;51.060;17.226;2023-11-21T19:40:03;38;32;19
44871;PMS7003;30602;51.060;17.226;2023-11-21T19:44:23;48;41;23
44871;PMS7003;30602;51.060;17.226;2023-11-21T19:48:18;46;37;19
44871;PMS7003;30602;51.060;17.226;2023-11-21T19:52:00;55;43;24
44871;PMS7003;30602;51.060;17.226;2023-11-21T19:55:39;51;43;24
44871;PMS7003;30602;51.060;17.226;2023-11-21T19:59:22;46;40;20
44871;PMS7003;30602;51.060;17.226;2023-11-21T20:04:23;44;35;21
44871;PMS7003;30602;51.060;17.226;2023-11-21T20:08:27;50;40;22
44871;PMS7003;30602;51.060;17.226;2023-11-21T20:12:24;44;35;21
44871;PMS7003;30602;51.060;17.226;2023-11-21T20:16:38;45;40;21
44871;PMS7003;30602;51.060;17.226;2023-11-21T20:20:04;46;38;23
44871;PMS7003;30602;51.060;17.226;2023-11-21T20:23:31;50;41;25
44871;PMS7003;30602;51.060;17.226;2023-11-21T20:27:06;44;37;23
44871;PMS7003;30602;51.060;17.226;2023-11-21T20:30:44;42;37;23
44871;PMS7003;30602;51.060;17.226;2023-11-21T20:34:24;51;40;23
44871;PMS7003;30602;51.060;17.226;2023-11-21T20:38:15;44;37;22
44871;PMS7003;30602;51.060;17.226;2023-11-21T20:42:40;41;35;20
44871;PMS7003;30602;51.060;17.226;2023-11-21T20:47:21;41;36;19
44871;PMS7003;30602;51.060;17.226;2023-11-21T20:50:55;38;34;21
44871;PMS7003;30602;51.060;17.226;2023-11-21T20:54:23;35;31;21
44871;PMS7003;30602;51.060;17.226;2023-11-21T20:58:03;36;30;19
44871;PMS7003;30602;51.060;17.226;2023-11-21T21:02:09;32;27;16
44871;PMS7003;30602;51.060;17.226;2023-11-21T21:08:07;40;34;21
44871;PMS7003;30602;51.060;17.226;2023-11-21T21:17:00;36;32;18
44871;PMS7003;30602;51.060;17.226;2023-11-21T21:20:43;38;29;15
44871;PMS7003;30602;51.060;17.226;2023-11-21T21:24:53;33;27;16
44871;PMS7003;30602;51.060;17.226;2023-11-21T21:29:26;30;27;15
44871;PMS7003;30602;51.060;17.226;2023-11-21T21:33:43;31;28;17
44871;PMS7003;30602;51.060;17.226;2023-11-21T21:37:33;32;24;11
44871;PMS7003;30602;51.060;17.226;2023-11-21T21:41:31;34;30;18
44871;PMS7003;30602;51.060;17.226;2023-11-21T21:45:10;42;33;19
44871;PMS7003;30602;51.060;17.226;2023-11-21T21:48:54;42;35;20
44871;PMS7003;30602;51.060;17.226;2023-11-21T21:56:09;43;36;20
44871;PMS7003;30602;51.060;17.226;2023-11-21T21:59:33;44;35;19
44871;PMS7003;30602;51.060;17.226;2023-11-21T22:03:45;40;35;20
44871;PMS7003;30602;51.060;17.226;2023-11-21T22:07:36;49;37;23
44871;PMS7003;30602;51.060;17.226;2023-11-21T22:11:14;42;33;19
44871;PMS7003;30602;51.060;17.226;2023-11-21T22:14:50;33;30;18
44871;PMS7003;30602;51.060;17.226;2023-11-21T22:18:32;46;35;21
44871;PMS7003;30602;51.060;17.226;2023-11-21T22:22:24;44;37;22
44871;PMS7003;30602;51.060;17.226;2023-11-21T22:26:20;48;40;23
44871;PMS7003;30602;51.060;17.226;2023-11-21T22:30:07;52;45;24
44871;PMS7003;30602;51.060;17.226;2023-11-21T22:34:27;41;37;22
44871;PMS7003;30602;51.060;17.226;2023-11-21T22:38:14;47;40;23
44871;PMS7003;30602;51.060;17.226;2023-11-21T22:41:58;48;40;23
44871;PMS7003;30602;51.060;17.226;2023-11-21T22:46:08;47;37;23
44871;PMS7003;30602;51.060;17.226;2023-11-21T22:49:56;58;41;21
44871;PMS7003;30602;51.060;17.226;2023-11-21T22:53:42;47;36;21
44871;PMS7003;30602;51.060;17.226;2023-11-21T22:57:33;66;47;23
44871;PMS7003;30602;51.060;17.226;2023-11-21T23:01:18;51;41;25
44871;PMS7003;30602;51.060;17.226;2023-11-21T23:05:40;57;44;25
44871;PMS7003;30602;51.060;17.226;2023-11-21T23:10:05;55;43;23
44871;PMS7003;30602;51.060;17.226;2023-11-21T23:14:06;53;45;26
44871;PMS7003;30602;51.060;17.226;2023-11-21T23:18:25;56;42;23
44871;PMS7003;30602;51.060;17.226;2023-11-21T23:21:48;53;43;24
44871;PMS7003;30602;51.060;17.226;2023-11-21T23:25:31;60;44;24
44871;PMS7003;30602;51.060;17.226;2023-11-21T23:29:18;39;34;16
44871;PMS7003;30602;51.060;17.226;2023-11-21T23:37:02;49;42;23
44871;PMS7003;30602;51.060;17.226;2023-11-21T23:40:57;49;42;24
44871;PMS7003;30602;51.060;17.226;2023-11-21T23:44:47;55;45;25
44871;PMS7003;30602;51.060;17.226;2023-11-21T23:48:37;51;43;25
44871;PMS7003;30602;51.060;17.226;2023-11-21T23:52:17;55;44;24
44871;PMS7003;30602;51.060;17.226;2023-11-21T23:55:59;53;43;25
44871;PMS7003;30602;51.060;17.226;2023-11-21T23:59:32;53;42;25
